Glinton, United Kingdom
Current Conditions -  °F | °C
As of 11:50 PM on Monday 22 Dec 2014 (Local Time) from EGXT Reporting Station
Scattered Clouds Scattered Clouds  
Wind Chill: 52°   Ceiling: Unl
Heat Index: 52°   Visibility: 6mi
Dew Point: 46°   Wind: 26mph
Humidity: 82%   Direction: 230°SW
Pressure: 29.91"   Gusts: NA
Location:  52.64°N, 0.3°W
Report Text: EGXT 222350Z AUTO 23023KT 9999 SCT025/// 11/08 Q1013
Loading
Personal Weather Stations






























Interactive Weather Map New forecast layout! Learn more

10-Day Weather Forecast

Advertisements
Track Severe Weather on mobile